AKU318 YBBN-NZWN
Flight info
| Callsign | AKU318 |
|---|---|
| Flight time | N/A |
| Altitude | 39000 |
| Route | SCOTT J208 LHI M639 GULUT |
| Aircraft | B77L/H-SDE1E2E3FGHIJ2J3J4J5M1RWXY/LB1D1 |
Departure
| Time | 2026-05-05 21:41 |
|---|---|
| Airport | Brisbane International Airport (YBBN) |
Arrival
| Time | N/A |
|---|---|
| Airport | Wellington International Airport (NZWN) |
| Time | Latitude | Longitude | Altitude | Speed | Heading |
|---|---|---|---|---|---|
| 2026-05-05 21:22 | -27.40351 | 153.11136 | 22 ft | 0 kts | 297° |
| 2026-05-05 21:29 | -27.40352 | 153.11139 | 27 ft | 2 kts | 296° |
| 2026-05-05 21:29 | -27.40360 | 153.11155 | 26 ft | 2 kts | 297° |
| 2026-05-05 21:29 | -27.40367 | 153.11172 | 27 ft | 2 kts | 298° |
| 2026-05-05 21:30 | -27.40376 | 153.11188 | 27 ft | 2 kts | 307° |
| 2026-05-05 21:30 | -27.40388 | 153.11198 | 25 ft | 2 kts | 349° |
| 2026-05-05 21:30 | -27.40405 | 153.11198 | 24 ft | 2 kts | 19° |
| 2026-05-05 21:30 | -27.40420 | 153.11190 | 26 ft | 2 kts | 28° |
| 2026-05-05 21:31 | -27.40432 | 153.11183 | 27 ft | 1 kts | 28° |
| 2026-05-05 21:31 | -27.40435 | 153.11181 | 27 ft | 0 kts | 28° |
| 2026-05-05 21:32 | -27.40434 | 153.11181 | 27 ft | 1 kts | 28° |
| 2026-05-05 21:33 | -27.40346 | 153.11233 | 25 ft | 23 kts | 27° |
| 2026-05-05 21:33 | -27.40226 | 153.11310 | 24 ft | 17 kts | 33° |
| 2026-05-05 21:33 | -27.40166 | 153.11395 | 26 ft | 11 kts | 50° |
| 2026-05-05 21:33 | -27.40083 | 153.11458 | 26 ft | 20 kts | 28° |
| 2026-05-05 21:34 | -27.39974 | 153.11521 | 27 ft | 15 kts | 27° |
| 2026-05-05 21:34 | -27.39901 | 153.11564 | 24 ft | 10 kts | 30° |
| 2026-05-05 21:34 | -27.39864 | 153.11660 | 26 ft | 16 kts | 77° |
| 2026-05-05 21:34 | -27.39803 | 153.11728 | 24 ft | 10 kts | 30° |
| 2026-05-05 21:35 | -27.39701 | 153.11787 | 24 ft | 29 kts | 27° |
| 2026-05-05 21:35 | -27.39523 | 153.11889 | 27 ft | 26 kts | 27° |
| 2026-05-05 21:35 | -27.39381 | 153.11970 | 24 ft | 20 kts | 27° |
| 2026-05-05 21:35 | -27.39254 | 153.12043 | 24 ft | 28 kts | 27° |
| 2026-05-05 21:36 | -27.39089 | 153.12138 | 23 ft | 24 kts | 27° |
| 2026-05-05 21:36 | -27.38960 | 153.12212 | 27 ft | 18 kts | 27° |
| 2026-05-05 21:36 | -27.38868 | 153.12265 | 24 ft | 13 kts | 27° |
| 2026-05-05 21:36 | -27.38765 | 153.12323 | 24 ft | 21 kts | 27° |
| 2026-05-05 21:37 | -27.38633 | 153.12398 | 24 ft | 19 kts | 27° |
| 2026-05-05 21:37 | -27.38535 | 153.12455 | 24 ft | 14 kts | 27° |
| 2026-05-05 21:37 | -27.38394 | 153.12535 | 24 ft | 27 kts | 27° |
| 2026-05-05 21:37 | -27.38247 | 153.12620 | 24 ft | 21 kts | 27° |
| 2026-05-05 21:38 | -27.38138 | 153.12682 | 25 ft | 15 kts | 26° |
| 2026-05-05 21:38 | -27.38028 | 153.12745 | 24 ft | 24 kts | 27° |
| 2026-05-05 21:38 | -27.37891 | 153.12823 | 25 ft | 19 kts | 27° |
| 2026-05-05 21:38 | -27.37787 | 153.12883 | 24 ft | 17 kts | 27° |
| 2026-05-05 21:39 | -27.37656 | 153.12958 | 24 ft | 21 kts | 27° |
| 2026-05-05 21:39 | -27.37544 | 153.13022 | 22 ft | 15 kts | 27° |
| 2026-05-05 21:39 | -27.37449 | 153.13076 | 25 ft | 23 kts | 26° |
| 2026-05-05 21:39 | -27.37304 | 153.13159 | 25 ft | 18 kts | 31° |
| 2026-05-05 21:40 | -27.37292 | 153.13276 | 27 ft | 17 kts | 116° |
| 2026-05-05 21:40 | -27.37353 | 153.13389 | 23 ft | 17 kts | 136° |
| 2026-05-05 21:40 | -27.37469 | 153.13422 | 29 ft | 23 kts | 196° |
| 2026-05-05 21:40 | -27.37831 | 153.13218 | 24 ft | 115 kts | 207° |
| 2026-05-05 21:41 | -27.38857 | 153.12644 | 489 ft | 186 kts | 207° |
| 2026-05-05 21:41 | -27.40012 | 153.11978 | 1924 ft | 192 kts | 204° |
| 2026-05-05 21:41 | -27.41271 | 153.11247 | 2745 ft | 216 kts | 204° |
| 2026-05-05 21:41 | -27.42787 | 153.10635 | 3121 ft | 252 kts | 182° |
| 2026-05-05 21:42 | -27.44515 | 153.11059 | 4028 ft | 255 kts | 148° |
| 2026-05-05 21:42 | -27.46010 | 153.12182 | 5159 ft | 263 kts | 145° |
| 2026-05-05 21:42 | -27.47548 | 153.13338 | 6323 ft | 269 kts | 146° |
| 2026-05-05 21:42 | -27.49175 | 153.14421 | 7250 ft | 275 kts | 158° |
| 2026-05-05 21:43 | -27.51078 | 153.14697 | 7851 ft | 281 kts | 187° |
| 2026-05-05 21:43 | -27.53017 | 153.14223 | 8006 ft | 291 kts | 193° |
| 2026-05-05 21:43 | -27.54999 | 153.13693 | 8009 ft | 293 kts | 193° |
| 2026-05-05 21:43 | -27.56950 | 153.13068 | 8005 ft | 290 kts | 198° |
| 2026-05-05 21:44 | -27.58843 | 153.12324 | 8001 ft | 284 kts | 195° |
| 2026-05-05 21:44 | -27.60781 | 153.12172 | 8012 ft | 283 kts | 167° |
| 2026-05-05 21:44 | -27.62536 | 153.13083 | 8025 ft | 285 kts | 141° |
| 2026-05-05 21:44 | -27.63861 | 153.14737 | 8022 ft | 284 kts | 124° |
| 2026-05-05 21:45 | -27.65000 | 153.16568 | 8026 ft | 288 kts | 124° |
| 2026-05-05 21:45 | -27.66096 | 153.18441 | 8031 ft | 283 kts | 117° |
| 2026-05-05 21:45 | -27.66883 | 153.20472 | 8670 ft | 283 kts | 109° |
| 2026-05-05 21:45 | -27.67567 | 153.22580 | 9768 ft | 289 kts | 108° |
| 2026-05-05 21:46 | -27.68259 | 153.24759 | 10670 ft | 303 kts | 109° |
| 2026-05-05 21:46 | -27.69013 | 153.27109 | 11062 ft | 335 kts | 109° |
| 2026-05-05 21:46 | -27.69857 | 153.29691 | 11483 ft | 363 kts | 110° |
| 2026-05-05 21:46 | -27.70757 | 153.32402 | 12383 ft | 374 kts | 110° |
| 2026-05-05 21:47 | -27.71691 | 153.35189 | 13381 ft | 383 kts | 111° |
| 2026-05-05 21:47 | -27.72650 | 153.38032 | 14335 ft | 392 kts | 111° |
| 2026-05-05 21:47 | -27.73621 | 153.40901 | 15166 ft | 402 kts | 111° |
| 2026-05-05 21:47 | -27.74632 | 153.43887 | 15983 ft | 413 kts | 110° |
| 2026-05-05 21:48 | -27.75667 | 153.46946 | 16815 ft | 422 kts | 110° |
| 2026-05-05 21:48 | -27.76728 | 153.50082 | 17618 ft | 432 kts | 110° |
| 2026-05-05 21:48 | -27.77813 | 153.53292 | 18432 ft | 442 kts | 109° |
| 2026-05-05 21:48 | -27.78916 | 153.56563 | 19187 ft | 449 kts | 110° |
| 2026-05-05 21:49 | -27.80035 | 153.59878 | 19977 ft | 455 kts | 110° |
| 2026-05-05 21:49 | -27.81168 | 153.63240 | 20786 ft | 460 kts | 110° |
| 2026-05-05 21:49 | -27.82314 | 153.66645 | 21561 ft | 467 kts | 110° |
| 2026-05-05 21:49 | -27.83477 | 153.70101 | 22291 ft | 474 kts | 110° |
| 2026-05-05 21:50 | -27.84655 | 153.73606 | 23024 ft | 481 kts | 110° |
| 2026-05-05 21:50 | -27.85950 | 153.77123 | 23753 ft | 488 kts | 115° |
| 2026-05-05 21:50 | -27.87577 | 153.80507 | 24375 ft | 494 kts | 122° |
| 2026-05-05 21:50 | -27.89484 | 153.83759 | 25027 ft | 498 kts | 128° |
| 2026-05-05 21:51 | -27.91662 | 153.86822 | 25687 ft | 502 kts | 131° |
| 2026-05-05 21:51 | -27.93919 | 153.89851 | 26329 ft | 506 kts | 132° |
| 2026-05-05 21:51 | -27.96218 | 153.92899 | 26963 ft | 511 kts | 133° |
| 2026-05-05 21:51 | -27.98507 | 153.95938 | 27585 ft | 517 kts | 133° |
| 2026-05-05 21:52 | -28.03184 | 154.02213 | 28825 ft | 527 kts | 132° |
| 2026-05-05 21:52 | -28.05543 | 154.05410 | 29431 ft | 531 kts | 132° |
| 2026-05-05 21:52 | -28.07916 | 154.08639 | 30034 ft | 536 kts | 132° |
| 2026-05-05 21:53 | -28.10308 | 154.11903 | 30542 ft | 540 kts | 132° |
| 2026-05-05 21:53 | -28.12717 | 154.15193 | 31003 ft | 545 kts | 132° |
| 2026-05-05 21:53 | -28.15146 | 154.18512 | 31439 ft | 549 kts | 132° |
| 2026-05-05 21:53 | -28.17593 | 154.21857 | 31856 ft | 553 kts | 132° |
| 2026-05-05 21:54 | -28.20054 | 154.25221 | 32302 ft | 555 kts | 133° |
| 2026-05-05 21:54 | -28.22519 | 154.28594 | 32846 ft | 555 kts | 133° |
| 2026-05-05 21:54 | -28.24982 | 154.31967 | 33427 ft | 554 kts | 133° |
| 2026-05-05 21:54 | -28.27436 | 154.35331 | 33987 ft | 554 kts | 133° |
| 2026-05-05 21:55 | -28.29892 | 154.38699 | 34458 ft | 554 kts | 133° |
| 2026-05-05 21:55 | -28.32358 | 154.42082 | 34851 ft | 556 kts | 133° |
| 2026-05-05 21:55 | -28.34823 | 154.45466 | 35224 ft | 557 kts | 133° |
| 2026-05-05 21:55 | -28.37294 | 154.48862 | 35612 ft | 559 kts | 133° |
| 2026-05-05 21:56 | -28.39775 | 154.52273 | 36003 ft | 560 kts | 133° |
| 2026-05-05 21:56 | -28.42254 | 154.55686 | 36379 ft | 561 kts | 133° |
| 2026-05-05 21:56 | -28.44737 | 154.59107 | 36752 ft | 562 kts | 133° |
| 2026-05-05 21:56 | -28.47225 | 154.62538 | 37112 ft | 563 kts | 134° |
| 2026-05-05 21:57 | -28.49722 | 154.65984 | 37484 ft | 564 kts | 134° |
| 2026-05-05 21:57 | -28.52215 | 154.69428 | 37880 ft | 564 kts | 134° |
| 2026-05-05 21:57 | -28.54673 | 154.72826 | 38239 ft | 565 kts | 134° |
| 2026-05-05 21:57 | -28.57167 | 154.76277 | 38601 ft | 565 kts | 134° |
| 2026-05-05 21:58 | -28.59664 | 154.79733 | 38926 ft | 565 kts | 134° |
| 2026-05-05 21:58 | -28.62170 | 154.83206 | 39089 ft | 569 kts | 134° |
| 2026-05-05 21:58 | -28.64681 | 154.86687 | 39122 ft | 570 kts | 134° |
| 2026-05-05 21:59 | -28.69684 | 154.93639 | 39112 ft | 563 kts | 134° |
| 2026-05-05 21:59 | -28.74623 | 155.00513 | 39133 ft | 559 kts | 134° |
| 2026-05-05 22:00 | -28.79547 | 155.07370 | 39137 ft | 559 kts | 134° |
| 2026-05-05 22:00 | -28.84468 | 155.14234 | 39136 ft | 559 kts | 134° |
| 2026-05-05 22:01 | -28.89387 | 155.21111 | 39136 ft | 560 kts | 133° |
| 2026-05-05 22:01 | -28.94309 | 155.28004 | 39133 ft | 561 kts | 133° |
| 2026-05-05 22:02 | -28.99212 | 155.34877 | 39132 ft | 562 kts | 133° |
| 2026-05-05 22:02 | -29.04158 | 155.41816 | 39132 ft | 563 kts | 133° |
| 2026-05-05 22:03 | -29.09105 | 155.48768 | 39125 ft | 563 kts | 133° |
| 2026-05-05 22:03 | -29.14049 | 155.55731 | 39125 ft | 562 kts | 133° |
| 2026-05-05 22:04 | -29.18973 | 155.62678 | 39122 ft | 561 kts | 133° |
| 2026-05-05 22:04 | -29.23847 | 155.69567 | 39123 ft | 560 kts | 133° |
| 2026-05-05 22:05 | -29.28741 | 155.76494 | 39124 ft | 559 kts | 133° |
| 2026-05-05 22:05 | -29.33624 | 155.83417 | 39122 ft | 558 kts | 133° |
| 2026-05-05 22:06 | -29.38493 | 155.90332 | 39121 ft | 557 kts | 133° |
| 2026-05-05 22:06 | -29.43360 | 155.97256 | 39116 ft | 557 kts | 133° |
| 2026-05-05 22:07 | -29.48220 | 156.04181 | 39123 ft | 556 kts | 133° |
| 2026-05-05 22:07 | -29.53074 | 156.11110 | 39120 ft | 556 kts | 133° |
| 2026-05-05 22:08 | -29.57920 | 156.18038 | 39124 ft | 556 kts | 133° |
| 2026-05-05 22:08 | -29.62739 | 156.24940 | 39119 ft | 556 kts | 133° |
| 2026-05-05 22:09 | -29.67577 | 156.31882 | 39117 ft | 557 kts | 133° |
| 2026-05-05 22:09 | -29.72420 | 156.38843 | 39119 ft | 557 kts | 133° |
| 2026-05-05 22:10 | -29.77256 | 156.45805 | 39124 ft | 556 kts | 133° |
| 2026-05-05 22:10 | -29.82084 | 156.52768 | 39113 ft | 556 kts | 133° |
| 2026-05-05 22:11 | -29.86916 | 156.59748 | 39120 ft | 556 kts | 133° |
| 2026-05-05 22:11 | -29.91743 | 156.66733 | 39117 ft | 557 kts | 132° |
| 2026-05-05 22:12 | -29.96533 | 156.73678 | 39120 ft | 556 kts | 132° |
| 2026-05-05 22:12 | -30.01348 | 156.80670 | 39117 ft | 556 kts | 132° |
| 2026-05-05 22:13 | -30.06157 | 156.87665 | 39118 ft | 556 kts | 132° |
| 2026-05-05 22:13 | -30.10968 | 156.94676 | 39117 ft | 556 kts | 132° |
| 2026-05-05 22:14 | -30.15770 | 157.01686 | 39122 ft | 556 kts | 132° |
| 2026-05-05 22:14 | -30.20566 | 157.08699 | 39117 ft | 556 kts | 132° |
| 2026-05-05 22:15 | -30.24553 | 157.14539 | 39117 ft | 556 kts | 132° |
| 2026-05-05 22:15 | -30.30120 | 157.22707 | 39115 ft | 556 kts | 132° |
| 2026-05-05 22:16 | -30.34907 | 157.29744 | 39114 ft | 556 kts | 132° |
| 2026-05-05 22:16 | -30.39688 | 157.36785 | 39111 ft | 556 kts | 132° |
| 2026-05-05 22:17 | -30.43665 | 157.42651 | 39112 ft | 556 kts | 132° |
| 2026-05-05 22:17 | -30.48435 | 157.49699 | 39109 ft | 556 kts | 132° |
| 2026-05-05 22:18 | -30.53210 | 157.56766 | 39117 ft | 556 kts | 132° |
| 2026-05-05 22:18 | -30.57973 | 157.63828 | 39112 ft | 556 kts | 132° |
| 2026-05-05 22:19 | -30.62737 | 157.70905 | 39115 ft | 556 kts | 132° |
| 2026-05-05 22:19 | -30.67498 | 157.77989 | 39107 ft | 556 kts | 132° |
| 2026-05-05 22:20 | -30.72254 | 157.85079 | 39111 ft | 556 kts | 132° |
| 2026-05-05 22:20 | -30.77000 | 157.92167 | 39107 ft | 555 kts | 132° |